Station Historical Data
Daily Summary for May 2, 2012 Units:  Metric    English   Both
« Previous Day
Next Day »
Daily Weekly Monthly Yearly Custom
  High: Low: Average:
Temperature: 30.5 °C 17.9 °C 24.3 °C
Dew Point: 20.5 °C 16.7 °C 18.8 °C
Humidity: 93% 50% 73%
Wind Speed: 19.3km/h 0km/h 5.3km/h
Wind Gust: 24.1km/h - -
Wind- - SSE
Pressure: 1017.5 hPa 1013.8 hPa -
Precipitation: 0 mm    
Historical Graphs
 
 
Tabular Data for May 2, 2012
Time Temperature Dew Point Pressure Wind Wind Speed Wind Gust Humidity Rainfall Rate (Hourly) Conditions
00:00 22.6 °C 18.4 °C 1014.4 hPa SSE 1.6 km/h 4.8 km/h 77% 0 mm
00:02 22.6 °C 18.4 °C 1014.4 hPa SSE 3.2 km/h 3.2 km/h 77% 0 mm
00:03 22.6 °C 18.4 °C 1014.4 hPa SSE 1.6 km/h 3.2 km/h 77% 0 mm
00:08 22.6 °C 18.4 °C 1014.4 hPa SSE 3.2 km/h 4.8 km/h 77% 0 mm
00:13 22.6 °C 18.4 °C 1014.4 hPa SSE 1.6 km/h 3.2 km/h 77% 0 mm
00:18 22.4 °C 18.4 °C 1014.4 hPa SSE 1.6 km/h 3.2 km/h 78% 0 mm
00:24 22.4 °C 18.4 °C 1014.4 hPa South 1.6 km/h 3.2 km/h 78% 0 mm
00:29 22.3 °C 18.3 °C 1014.4 hPa SSE 1.6 km/h 3.2 km/h 78% 0 mm
00:34 22.1 °C 18.2 °C 1014.4 hPa SSE 3.2 km/h 3.2 km/h 79% 0 mm
00:39 21.8 °C 18.4 °C 1014.4 hPa SSE 3.2 km/h 4.8 km/h 81% 0 mm
00:44 21.8 °C 18.4 °C 1014.4 hPa SSE 3.2 km/h 4.8 km/h 81% 0 mm
00:49 21.7 °C 18.3 °C 1014.4 hPa SE 1.6 km/h 3.2 km/h 81% 0 mm
00:54 21.6 °C 18.4 °C 1014.4 hPa SE 3.2 km/h 3.2 km/h 82% 0 mm
00:59 21.6 °C 18.4 °C 1014.4 hPa SE 4.8 km/h 6.4 km/h 82% 0 mm
01:04 21.7 °C 18.4 °C 1014.4 hPa SSE 3.2 km/h 8 km/h 82% 0 mm
01:09 21.7 °C 18.4 °C 1014.4 hPa SSE 3.2 km/h 4.8 km/h 82% 0 mm
01:14 21.7 °C 18.4 °C 1014.4 hPa SE 3.2 km/h 4.8 km/h 82% 0 mm
01:19 21.6 °C 18.6 °C 1014.4 hPa SSE 1.6 km/h 4.8 km/h 83% 0 mm
01:24 21.4 °C 18.4 °C 1014.4 hPa SE 1.6 km/h 1.6 km/h 83% 0 mm
01:29 21.3 °C 18.3 °C 1014.4 hPa SSE 1.6 km/h 1.6 km/h 83% 0 mm
01:34 21.1 °C 18.3 °C 1014.4 hPa SE 3.2 km/h 4.8 km/h 84% 0 mm
01:39 21.1 °C 18.2 °C 1014.4 hPa SSE 1.6 km/h 3.2 km/h 84% 0 mm
01:44 21.1 °C 18.2 °C 1014.4 hPa SE 3.2 km/h 4.8 km/h 84% 0 mm
01:49 20.9 °C 18.2 °C 1014.4 hPa SE 3.2 km/h 4.8 km/h 84% 0 mm
01:54 20.9 °C 18.2 °C 1014.4 hPa SSE 3.2 km/h 3.2 km/h 84% 0 mm
01:59 20.9 °C 18.2 °C 1014.4 hPa SSE 3.2 km/h 4.8 km/h 84% 0 mm
02:04 20.9 °C 18.2 °C 1014.4 hPa SE 3.2 km/h 4.8 km/h 84% 0 mm
02:09 20.9 °C 18.1 °C 1014.1 hPa SSE 1.6 km/h 4.8 km/h 84% 0 mm
02:14 20.8 °C 18.2 °C 1014.1 hPa SSW 1.6 km/h 3.2 km/h 85% 0 mm
02:19 20.7 °C 18.1 °C 1014.1 hPa SSE 1.6 km/h 3.2 km/h 85% 0 mm
02:24 20.6 °C 17.9 °C 1014.1 hPa SE 3.2 km/h 3.2 km/h 85% 0 mm
02:30 20.4 °C 17.9 °C 1014.1 hPa SSE 3.2 km/h 4.8 km/h 86% 0 mm
02:35 20.3 °C 17.9 °C 1014.1 hPa SSE 3.2 km/h 4.8 km/h 86% 0 mm
02:40 20.3 °C 17.9 °C 1014.1 hPa SSE 4.8 km/h 6.4 km/h 86% 0 mm
02:45 20.3 °C 17.9 °C 1014.1 hPa SE 8 km/h 8 km/h 86% 0 mm
02:50 20.3 °C 17.9 °C 1014.1 hPa South 3.2 km/h 6.4 km/h 86% 0 mm
02:55 20.3 °C 17.9 °C 1013.8 hPa SE 4.8 km/h 6.4 km/h 86% 0 mm
03:00 20.3 °C 17.9 °C 1013.8 hPa SSE 3.2 km/h 4.8 km/h 86% 0 mm
03:05 20.2 °C 17.8 °C 1013.8 hPa SE 3.2 km/h 4.8 km/h 86% 0 mm
03:10 20.1 °C 17.7 °C 1013.8 hPa South 3.2 km/h 4.8 km/h 86% 0 mm
03:15 20.1 °C 17.8 °C 1013.8 hPa SSE 3.2 km/h 4.8 km/h 87% 0 mm
03:20 20.1 °C 17.8 °C 1014.1 hPa SSW 1.6 km/h 3.2 km/h 87% 0 mm
03:25 20.1 °C 17.8 °C 1014.1 hPa SSE 3.2 km/h 3.2 km/h 87% 0 mm
03:30 19.9 °C 17.7 °C 1014.1 hPa SSE 3.2 km/h 3.2 km/h 87% 0 mm
03:35 19.9 °C 17.7 °C 1014.1 hPa SSE 4.8 km/h 6.4 km/h 87% 0 mm
03:40 19.9 °C 17.7 °C 1014.1 hPa SSE 1.6 km/h 4.8 km/h 87% 0 mm
03:45 19.8 °C 17.6 °C 1014.1 hPa SE 1.6 km/h 3.2 km/h 87% 0 mm
03:50 19.7 °C 17.7 °C 1014.1 hPa SE 1.6 km/h 3.2 km/h 88% 0 mm
03:55 19.7 °C 17.6 °C 1014.1 hPa SE 1.6 km/h 3.2 km/h 88% 0 mm
04:00 19.6 °C 17.6 °C 1014.4 hPa SE 1.6 km/h 1.6 km/h 88% 0 mm
04:05 19.6 °C 17.5 °C 1014.4 hPa SE 1.6 km/h 3.2 km/h 88% 0 mm
04:10 19.6 °C 17.5 °C 1014.4 hPa SE 1.6 km/h 3.2 km/h 88% 0 mm
04:15 19.6 °C 17.7 °C 1014.4 hPa SE 4.8 km/h 4.8 km/h 89% 0 mm
04:20 19.7 °C 17.6 °C 1014.4 hPa SE 3.2 km/h 4.8 km/h 88% 0 mm
04:25 19.7 °C 17.6 °C 1014.4 hPa SE 1.6 km/h 3.2 km/h 88% 0 mm
04:31 19.6 °C 17.6 °C 1014.4 hPa SE 1.6 km/h 1.6 km/h 88% 0 mm
04:36 19.5 °C 17.4 °C 1014.4 hPa SE 1.6 km/h 1.6 km/h 88% 0 mm
04:41 19.4 °C 17.4 °C 1014.4 hPa Calm     88% 0 mm
04:46 19.2 °C 17.2 °C 1014.4 hPa Calm     88% 0 mm
04:51 19.1 °C 17.3 °C 1014.4 hPa Calm   3.2 km/h 89% 0 mm
04:56 19.1 °C 17.2 °C 1014.4 hPa Calm   1.6 km/h 89% 0 mm
05:01 18.9 °C 17.2 °C 1014.8 hPa Calm     90% 0 mm
05:06 18.9 °C 17.2 °C 1014.8 hPa Calm     90% 0 mm
05:11 18.9 °C 17.2 °C 1014.8 hPa ESE 1.6 km/h 3.2 km/h 90% 0 mm
05:16 18.9 °C 17.2 °C 1014.8 hPa SE 1.6 km/h 3.2 km/h 90% 0 mm
05:21 18.8 °C 17.2 °C 1014.8 hPa Calm   1.6 km/h 90% 0 mm
05:26 18.8 °C 17.1 °C 1014.8 hPa Calm   1.6 km/h 90% 0 mm
05:31 18.8 °C 17.1 °C 1014.8 hPa Calm   1.6 km/h 90% 0 mm
05:36 18.8 °C 17.3 °C 1015.1 hPa SE 1.6 km/h 1.6 km/h 91% 0 mm
05:41 18.9 °C 17.4 °C 1014.8 hPa Calm   3.2 km/h 91% 0 mm
05:46 18.9 °C 17.2 °C 1015.1 hPa Calm   1.6 km/h 90% 0 mm
05:51 18.9 °C 17.4 °C 1015.1 hPa SE 1.6 km/h 1.6 km/h 91% 0 mm
05:56 18.9 °C 17.4 °C 1015.1 hPa SSE 1.6 km/h 3.2 km/h 91% 0 mm
06:01 18.9 °C 17.2 °C 1015.1 hPa Calm     90% 0 mm
06:06 18.8 °C 17.3 °C 1015.1 hPa ESE 1.6 km/h 1.6 km/h 91% 0 mm
06:11 18.8 °C 17.3 °C 1015.1 hPa ESE 3.2 km/h 3.2 km/h 91% 0 mm
06:16 19 °C 17.5 °C 1015.1 hPa ESE 3.2 km/h 4.8 km/h 91% 0 mm
06:21 18.9 °C 17.2 °C 1015.1 hPa ESE 1.6 km/h 3.2 km/h 90% 0 mm
06:26 18.8 °C 17.1 °C 1015.5 hPa ESE 1.6 km/h 3.2 km/h 90% 0 mm
06:32 18.7 °C 17.2 °C 1015.5 hPa Calm   1.6 km/h 91% 0 mm
06:37 18.6 °C 17.1 °C 1015.5 hPa Calm   1.6 km/h 91% 0 mm
06:42 18.4 °C 16.9 °C 1015.5 hPa Calm   1.6 km/h 91% 0 mm
06:47 18.3 °C 16.9 °C 1015.5 hPa East 1.6 km/h 1.6 km/h 92% 0 mm
06:52 18.2 °C 16.9 °C 1015.5 hPa East 1.6 km/h 1.6 km/h 92% 0 mm
06:57 18.1 °C 16.8 °C 1015.5 hPa Calm     92% 0 mm
07:02 18.1 °C 16.7 °C 1015.8 hPa Calm     92% 0 mm
07:07 18 °C 16.8 °C 1015.8 hPa Calm     93% 0 mm
07:12 17.9 °C 16.7 °C 1015.8 hPa Calm   3.2 km/h 93% 0 mm
07:17 17.9 °C 16.7 °C 1015.8 hPa ESE 3.2 km/h 3.2 km/h 93% 0 mm
07:22 17.9 °C 16.8 °C 1015.8 hPa ESE 3.2 km/h 3.2 km/h 93% 0 mm
07:27 18 °C 16.8 °C 1016.1 hPa SE 1.6 km/h 4.8 km/h 93% 0 mm
07:32 18.1 °C 16.9 °C 1016.1 hPa SE 1.6 km/h 1.6 km/h 93% 0 mm
07:37 18.2 °C 17 °C 1016.1 hPa SE 3.2 km/h 3.2 km/h 93% 0 mm
07:42 18.4 °C 17.2 °C 1016.1 hPa SSE 3.2 km/h 3.2 km/h 93% 0 mm
07:47 18.6 °C 17.4 °C 1016.1 hPa ESE 1.6 km/h 3.2 km/h 93% 0 mm
07:52 18.8 °C 17.7 °C 1016.1 hPa SE 3.2 km/h 3.2 km/h 93% 0 mm
07:57 19 °C 17.7 °C 1016.5 hPa SE 3.2 km/h 4.8 km/h 92% 0 mm
08:02 19.2 °C 17.9 °C 1016.5 hPa SE 4.8 km/h 4.8 km/h 92% 0 mm
08:07 19.4 °C 18.1 °C 1016.5 hPa SE 3.2 km/h 6.4 km/h 92% 0 mm
08:13 19.8 °C 18.3 °C 1016.5 hPa SSE 3.2 km/h 8 km/h 91% 0 mm
08:18 20.1 °C 18.6 °C 1016.5 hPa SSE 4.8 km/h 4.8 km/h 91% 0 mm
08:23 20.3 °C 18.6 °C 1016.5 hPa SSE 6.4 km/h 8 km/h 90% 0 mm
08:28 20.6 °C 18.7 °C 1016.5 hPa SE 3.2 km/h 6.4 km/h 89% 0 mm
08:33 20.9 °C 19.1 °C 1016.5 hPa SE 1.6 km/h 4.8 km/h 89% 0 mm
08:38 21.3 °C 19.3 °C 1016.5 hPa SSW 4.8 km/h 6.4 km/h 88% 0 mm
08:43 21.7 °C 19.4 °C 1016.8 hPa SSE 4.8 km/h 6.4 km/h 87% 0 mm
08:48 22.1 °C 19.4 °C 1016.5 hPa South 4.8 km/h 8 km/h 85% 0 mm
08:53 22.3 °C 19.5 °C 1016.8 hPa SSW 4.8 km/h 8 km/h 84% 0 mm
08:58 22.4 °C 19.6 °C 1016.8 hPa SSE 4.8 km/h 6.4 km/h 84% 0 mm
09:03 22.7 °C 19.6 °C 1016.8 hPa SW 4.8 km/h 6.4 km/h 83% 0 mm
09:08 22.8 °C 19.8 °C 1016.8 hPa SW 4.8 km/h 8 km/h 83% 0 mm
09:13 23.1 °C 19.8 °C 1016.8 hPa SW 6.4 km/h 8 km/h 82% 0 mm
09:18 23.1 °C 19.6 °C 1016.8 hPa SW 4.8 km/h 9.7 km/h 81% 0 mm
09:23 23.2 °C 19.7 °C 1016.8 hPa SW 3.2 km/h 8 km/h 81% 0 mm
09:28 23.3 °C 19.8 °C 1016.8 hPa SSW 3.2 km/h 8 km/h 81% 0 mm
09:33 23.4 °C 19.7 °C 1016.8 hPa SW 6.4 km/h 9.7 km/h 80% 0 mm
09:38 23.4 °C 19.6 °C 1017.2 hPa SW 4.8 km/h 8 km/h 79% 0 mm
09:43 23.6 °C 19.9 °C 1017.2 hPa WSW 4.8 km/h 9.7 km/h 80% 0 mm
09:48 23.7 °C 19.8 °C 1017.2 hPa SSW 4.8 km/h 9.7 km/h 79% 0 mm
09:53 23.8 °C 19.8 °C 1017.2 hPa SSW 3.2 km/h 9.7 km/h 78% 0 mm
09:58 24 °C 19.7 °C 1017.2 hPa SW 8 km/h 11.3 km/h 77% 0 mm
10:03 24.1 °C 19.8 °C 1017.2 hPa SSE 6.4 km/h 9.7 km/h 77% 0 mm
10:08 24.4 °C 19.9 °C 1017.2 hPa WSW 6.4 km/h 6.4 km/h 76% 0 mm
10:14 24.6 °C 19.8 °C 1017.2 hPa SSE 4.8 km/h 8 km/h 75% 0 mm
10:19 24.8 °C 19.8 °C 1017.2 hPa SW 3.2 km/h 8 km/h 74% 0 mm
10:24 25 °C 20.1 °C 1017.2 hPa SSW 3.2 km/h 8 km/h 74% 0 mm
10:29 25.1 °C 19.7 °C 1017.2 hPa WSW 8 km/h 8 km/h 72% 0 mm
10:34 25.1 °C 19.9 °C 1017.2 hPa SSE 4.8 km/h 8 km/h 73% 0 mm
10:39 25.2 °C 19.8 °C 1017.2 hPa SSW 1.6 km/h 8 km/h 72% 0 mm
10:44 25.4 °C 19.8 °C 1017.2 hPa SW 6.4 km/h 8 km/h 71% 0 mm
10:49 25.8 °C 19.9 °C 1017.5 hPa WSW 6.4 km/h 6.4 km/h 70% 0 mm
10:54 25.8 °C 19.7 °C 1017.2 hPa SW 4.8 km/h 9.7 km/h 69% 0 mm
10:59 26.1 °C 19.8 °C 1017.5 hPa West 3.2 km/h 6.4 km/h 68% 0 mm
11:04 26.6 °C 19.7 °C 1017.5 hPa SSW 1.6 km/h 8 km/h 66% 0 mm
11:09 26.5 °C 19.4 °C 1017.5 hPa SW 11.3 km/h 14.5 km/h 65% 0 mm
11:14 26.7 °C 19.6 °C 1017.5 hPa SW 6.4 km/h 11.3 km/h 65% 0 mm
11:19 26.8 °C 18.9 °C 1017.5 hPa SSW 4.8 km/h 9.7 km/h 62% 0 mm
11:24 27 °C 19.6 °C 1017.2 hPa West 11.3 km/h 12.9 km/h 64% 0 mm
11:29 27.1 °C 19.4 °C 1017.5 hPa SSW 8 km/h 12.9 km/h 63% 0 mm
11:34 27.1 °C 19.4 °C 1017.2 hPa South 4.8 km/h 14.5 km/h 63% 0 mm
11:39 27.3 °C 19.4 °C 1017.2 hPa SW 8 km/h 9.7 km/h 62% 0 mm
11:45 27.1 °C 19.4 °C 1017.2 hPa SW 12.9 km/h 14.5 km/h 63% 0 mm
11:50 27.2 °C 19.3 °C 1017.2 hPa SSW 8 km/h 12.9 km/h 62% 0 mm
11:55 27.5 °C 19.8 °C 1017.2 hPa South 6.4 km/h 8 km/h 63% 0 mm
12:00 27.8 °C 20.2 °C 1017.2 hPa SW 14.5 km/h 16.1 km/h 63% 0 mm
12:05 27.7 °C 19.7 °C 1017.2 hPa SW 11.3 km/h 12.9 km/h 62% 0 mm
12:10 27.8 °C 20.2 °C 1017.2 hPa SW 6.4 km/h 14.5 km/h 63% 0 mm
12:15 28.1 °C 19.6 °C 1017.2 hPa SSE 12.9 km/h 14.5 km/h 60% 0 mm
12:20 27.8 °C 19.6 °C 1017.2 hPa SW 9.7 km/h 9.7 km/h 61% 0 mm
12:25 28 °C 19.8 °C 1017.2 hPa SSE 4.8 km/h 11.3 km/h 61% 0 mm
12:30 27.9 °C 19.2 °C 1017.2 hPa SW 9.7 km/h 9.7 km/h 59% 0 mm
12:35 28.1 °C 19.3 °C 1016.8 hPa SE 11.3 km/h 12.9 km/h 59% 0 mm
12:40 28.1 °C 19.3 °C 1016.8 hPa SE 4.8 km/h 17.7 km/h 59% 0 mm
12:45 28.3 °C 19.5 °C 1017.2 hPa SSE 19.3 km/h 19.3 km/h 59% 0 mm
12:50 28.5 °C 19.2 °C 1017.2 hPa SE 16.1 km/h 19.3 km/h 57% 0 mm
12:55 28.6 °C 19.5 °C 1016.8 hPa SE 11.3 km/h 14.5 km/h 58% 0 mm
13:00 28.2 °C 19.7 °C 1016.8 hPa SE 17.7 km/h 19.3 km/h 60% 0 mm
13:05 28.5 °C 20 °C 1016.8 hPa SE 11.3 km/h 22.5 km/h 60% 0 mm
13:10 28.6 °C 19.8 °C 1016.8 hPa SSE 11.3 km/h 19.3 km/h 59% 0 mm
13:16 28.8 °C 19.8 °C 1016.8 hPa South 4.8 km/h 14.5 km/h 58% 0 mm
13:21 28.5 °C 19.7 °C 1016.5 hPa SSE 8 km/h 14.5 km/h 59% 0 mm
13:26 28.7 °C 19.9 °C 1016.5 hPa SE 9.7 km/h 22.5 km/h 59% 0 mm
13:31 28.8 °C 20 °C 1016.5 hPa SW 4.8 km/h 17.7 km/h 59% 0 mm
13:36 28.7 °C 19.9 °C 1016.5 hPa SSW 4.8 km/h 19.3 km/h 59% 0 mm
13:41 28.9 °C 19.8 °C 1016.5 hPa SSE 8 km/h 24.1 km/h 58% 0 mm
13:46 28.9 °C 19.6 °C 1016.5 hPa SE 14.5 km/h 19.3 km/h 57% 0 mm
13:51 29 °C 19.6 °C 1016.1 hPa SE 9.7 km/h 17.7 km/h 57% 0 mm
13:56 28.9 °C 19.8 °C 1016.1 hPa South 9.7 km/h 20.9 km/h 58% 0 mm
14:01 28.8 °C 19.8 °C 1016.1 hPa SE 17.7 km/h 20.9 km/h 58% 0 mm
14:06 28.6 °C 19.2 °C 1016.1 hPa SE 12.9 km/h 24.1 km/h 57% 0 mm
14:11 28.5 °C 19.4 °C 1016.1 hPa SE 14.5 km/h 19.3 km/h 58% 0 mm
14:16 28.3 °C 19.3 °C 1016.1 hPa SE 16.1 km/h 17.7 km/h 58% 0 mm
14:21 28.6 °C 19.6 °C 1015.8 hPa ENE 3.2 km/h 17.7 km/h 58% 0 mm
14:26 28.6 °C 20.1 °C 1015.8 hPa SE 9.7 km/h 20.9 km/h 60% 0 mm
14:31 28.6 °C 19.8 °C 1015.8 hPa SE 9.7 km/h 16.1 km/h 59% 0 mm
14:36 28.8 °C 20 °C 1015.8 hPa South 11.3 km/h 11.3 km/h 59% 0 mm
14:41 28.9 °C 19.8 °C 1015.8 hPa SE 9.7 km/h 11.3 km/h 58% 0 mm
14:46 29 °C 19.9 °C 1015.8 hPa East 6.4 km/h 16.1 km/h 58% 0 mm
14:51 28.7 °C 19.9 °C 1015.8 hPa SE 8 km/h 12.9 km/h 59% 0 mm
14:56 28.5 °C 19.7 °C 1015.5 hPa SSE 9.7 km/h 12.9 km/h 59% 0 mm
15:01 28.9 °C 19.8 °C 1015.5 hPa East 12.9 km/h 16.1 km/h 58% 0 mm
15:06 29.3 °C 20.5 °C 1015.5 hPa ESE 6.4 km/h 17.7 km/h 59% 0 mm
15:11 29.7 °C 20 °C 1015.5 hPa SSE 6.4 km/h 17.7 km/h 56% 0 mm
15:16 29.8 °C 19.5 °C 1015.5 hPa SSE 12.9 km/h 22.5 km/h 54% 0 mm
15:21 29.8 °C 19.5 °C 1015.5 hPa South 6.4 km/h 17.7 km/h 54% 0 mm
15:26 29.8 °C 19.2 °C 1015.5 hPa SSW 8 km/h 16.1 km/h 53% 0 mm
15:31 29.8 °C 19.2 °C 1015.5 hPa SE 14.5 km/h 14.5 km/h 53% 0 mm
15:36 29.8 °C 19.5 °C 1015.5 hPa SE 12.9 km/h 20.9 km/h 54% 0 mm
15:41 30 °C 19.4 °C 1015.1 hPa SE 6.4 km/h 12.9 km/h 53% 0 mm
15:46 30.3 °C 19.4 °C 1015.1 hPa South 12.9 km/h 17.7 km/h 52% 0 mm
15:51 30.5 °C 19.2 °C 1015.1 hPa ESE 16.1 km/h 17.7 km/h 51% 0 mm
15:56 30.3 °C 19.6 °C 1015.1 hPa SSW 6.4 km/h 11.3 km/h 53% 0 mm
15:57 30.3 °C 19.7 °C 1015.1 hPa SSW 8 km/h 11.3 km/h 53% 0 mm
16:02 30.2 °C 19 °C 1014.8 hPa SE 9.7 km/h 20.9 km/h 51% 0 mm
16:07 30.2 °C 19.6 °C 1014.8 hPa SE 12.9 km/h 20.9 km/h 53% 0 mm
16:12 30.1 °C 19.4 °C 1014.8 hPa SE 9.7 km/h 19.3 km/h 53% 0 mm
16:17 30 °C 19.4 °C 1014.8 hPa SSE 8 km/h 14.5 km/h 53% 0 mm
16:22 29.8 °C 19.2 °C 1014.8 hPa SW 6.4 km/h 14.5 km/h 53% 0 mm
16:27 29.8 °C 18.9 °C 1014.8 hPa South 12.9 km/h 17.7 km/h 52% 0 mm
16:32 30.2 °C 19.6 °C 1014.4 hPa South 6.4 km/h 9.7 km/h 53% 0 mm
16:37 30.3 °C 19.6 °C 1014.4 hPa SE 9.7 km/h 16.1 km/h 53% 0 mm
16:42 30.4 °C 18.8 °C 1014.8 hPa SSW 8 km/h 14.5 km/h 50% 0 mm
16:47 30.4 °C 18.8 °C 1014.4 hPa SE 14.5 km/h 19.3 km/h 50% 0 mm
16:52 30.2 °C 19 °C 1014.4 hPa SE 11.3 km/h 12.9 km/h 51% 0 mm
16:57 30.2 °C 19.2 °C 1014.4 hPa SSE 11.3 km/h 17.7 km/h 52% 0 mm
17:02 30.2 °C 19.8 °C 1014.4 hPa SSW 9.7 km/h 16.1 km/h 54% 0 mm
17:07 30.1 °C 18.8 °C 1014.4 hPa ESE 9.7 km/h 17.7 km/h 51% 0 mm
17:12 29.8 °C 18.9 °C 1014.4 hPa South 14.5 km/h 14.5 km/h 52% 0 mm
17:17 29.6 °C 18.4 °C 1014.1 hPa ESE 9.7 km/h 14.5 km/h 51% 0 mm
17:22 29.6 °C 19 °C 1014.1 hPa SSW 12.9 km/h 16.1 km/h 53% 0 mm
17:27 29.7 °C 18.5 °C 1014.1 hPa South 8 km/h 12.9 km/h 51% 0 mm
17:32 29.9 °C 18.7 °C 1014.1 hPa SSE 9.7 km/h 11.3 km/h 51% 0 mm
17:37 29.8 °C 18.6 °C 1014.1 hPa SSE 6.4 km/h 9.7 km/h 51% 0 mm
17:42 30 °C 18.8 °C 1014.1 hPa ESE 12.9 km/h 14.5 km/h 51% 0 mm
17:47 29.9 °C 18.3 °C 1014.1 hPa SE 8 km/h 19.3 km/h 50% 0 mm
17:52 29.8 °C 18.2 °C 1014.1 hPa SSE 8 km/h 12.9 km/h 50% 0 mm
17:57 29.8 °C 18.6 °C 1014.1 hPa SSE 9.7 km/h 16.1 km/h 51% 0 mm
18:02 29.8 °C 18.9 °C 1014.1 hPa SSE 12.9 km/h 14.5 km/h 52% 0 mm
18:07 29.8 °C 18.9 °C 1014.1 hPa SSE 8 km/h 14.5 km/h 52% 0 mm
18:12 29.8 °C 18.9 °C 1014.1 hPa ESE 6.4 km/h 8 km/h 52% 0 mm
18:17 29.8 °C 19.2 °C 1013.8 hPa ESE 4.8 km/h 8 km/h 53% 0 mm
18:22 29.8 °C 18.6 °C 1014.1 hPa SE 9.7 km/h 11.3 km/h 51% 0 mm
18:27 29.6 °C 18.1 °C 1014.1 hPa SE 12.9 km/h 16.1 km/h 50% 0 mm
18:33 29.4 °C 18.3 °C 1013.8 hPa SSE 8 km/h 12.9 km/h 51% 0 mm
18:38 29.1 °C 18.3 °C 1013.8 hPa SSE 6.4 km/h 14.5 km/h 52% 0 mm
18:43 28.8 °C 18.6 °C 1013.8 hPa SSE 6.4 km/h 16.1 km/h 54% 0 mm
18:48 28.5 °C 18.9 °C 1013.8 hPa SE 4.8 km/h 8 km/h 56% 0 mm
18:53 28.3 °C 18.7 °C 1013.8 hPa SE 4.8 km/h 6.4 km/h 56% 0 mm
18:58 28.2 °C 19.1 °C 1013.8 hPa SE 4.8 km/h 6.4 km/h 58% 0 mm
19:03 28.1 °C 18.8 °C 1013.8 hPa ESE 4.8 km/h 4.8 km/h 57% 0 mm
19:08 28 °C 19.3 °C 1013.8 hPa ESE 6.4 km/h 8 km/h 59% 0 mm
19:13 27.9 °C 19.2 °C 1013.8 hPa SE 4.8 km/h 8 km/h 59% 0 mm
19:18 27.7 °C 19.3 °C 1013.8 hPa SE 4.8 km/h 6.4 km/h 60% 0 mm
19:23 27.6 °C 18.9 °C 1013.8 hPa SE 3.2 km/h 3.2 km/h 59% 0 mm
19:28 27.5 °C 19.3 °C 1014.1 hPa SE 3.2 km/h 3.2 km/h 61% 0 mm
19:33 27.3 °C 19.2 °C 1014.1 hPa SE 1.6 km/h 4.8 km/h 61% 0 mm
19:38 27.3 °C 19.1 °C 1014.1 hPa SE 3.2 km/h 4.8 km/h 61% 0 mm
19:39 27.2 °C 19.3 °C 1014.1 hPa SSE 3.2 km/h 4.8 km/h 62% 0 mm
19:44 27.1 °C 19.2 °C 1014.1 hPa SE 1.6 km/h 3.2 km/h 62% 0 mm
19:49 27.1 °C 19.4 °C 1014.1 hPa SE 1.6 km/h 3.2 km/h 63% 0 mm
19:50 27.1 °C 19.2 °C 1014.1 hPa Calm   1.6 km/h 62% 0 mm
19:55 26.9 °C 19.3 °C 1014.1 hPa SE 1.6 km/h 1.6 km/h 63% 0 mm
20:00 26.8 °C 19.4 °C 1014.1 hPa Calm     64% 0 mm
20:05 26.6 °C 19.5 °C 1014.1 hPa Calm     65% 0 mm
20:10 26.3 °C 19.5 °C 1014.1 hPa Calm     66% 0 mm
20:15 26.2 °C 19.4 °C 1014.4 hPa Calm     66% 0 mm
20:20 26 °C 19.4 °C 1014.4 hPa Calm     67% 0 mm
20:25 26 °C 19.4 °C 1014.4 hPa SE 1.6 km/h 3.2 km/h 67% 0 mm
20:30 25.8 °C 19.2 °C 1014.4 hPa Calm   1.6 km/h 67% 0 mm
20:35 25.7 °C 19.1 °C 1014.4 hPa Calm     67% 0 mm
20:40 25.6 °C 19.3 °C 1014.4 hPa Calm     68% 0 mm
20:45 25.5 °C 19.4 °C 1014.4 hPa ESE 1.6 km/h 1.6 km/h 69% 0 mm
20:51 25.4 °C 19.3 °C 1014.4 hPa East 3.2 km/h 3.2 km/h 69% 0 mm
20:56 25.3 °C 19.5 °C 1014.8 hPa East 3.2 km/h 3.2 km/h 70% 0 mm
21:01 25.4 °C 19.3 °C 1014.8 hPa ESE 1.6 km/h 4.8 km/h 69% 0 mm
21:06 25.3 °C 19.4 °C 1014.8 hPa ESE 3.2 km/h 3.2 km/h 70% 0 mm
21:11 25.2 °C 19.4 °C 1015.1 hPa ESE 1.6 km/h 3.2 km/h 70% 0 mm
21:16 25.2 °C 19.1 °C 1015.1 hPa SE 1.6 km/h 3.2 km/h 69% 0 mm
21:21 25.1 °C 19.5 °C 1015.1 hPa Calm   1.6 km/h 71% 0 mm
21:26 24.8 °C 19.4 °C 1015.1 hPa Calm   3.2 km/h 72% 0 mm
21:31 24.6 °C 19.4 °C 1015.1 hPa Calm   1.6 km/h 73% 0 mm
21:36 24.4 °C 19.4 °C 1015.1 hPa Calm   1.6 km/h 74% 0 mm
21:41 24.3 °C 19.4 °C 1015.1 hPa ESE 1.6 km/h 1.6 km/h 74% 0 mm
21:46 24.4 °C 19.5 °C 1015.1 hPa ESE 1.6 km/h 1.6 km/h 74% 0 mm
21:51 24.3 °C 19.4 °C 1015.1 hPa Calm     74% 0 mm
21:56 24.2 °C 19.7 °C 1015.8 hPa WSW 11.3 km/h 17.7 km/h 76% 0 mm
22:01 23.9 °C 19.6 °C 1015.8 hPa West 11.3 km/h 19.3 km/h 77% 0 mm
22:06 23.8 °C 19.5 °C 1015.8 hPa West 14.5 km/h 16.1 km/h 77% 0 mm
22:08 23.7 °C 19.7 °C 1015.8 hPa SW 11.3 km/h 16.1 km/h 78% 0 mm
22:13 23.7 °C 19.6 °C 1015.8 hPa WSW 9.7 km/h 12.9 km/h 78% 0 mm
22:18 23.6 °C 19.5 °C 1015.8 hPa WSW 8 km/h 14.5 km/h 78% 0 mm
22:23 23.4 °C 19.6 °C 1015.8 hPa WSW 11.3 km/h 11.3 km/h 79% 0 mm
22:29 23.2 °C 19.4 °C 1015.8 hPa West 8 km/h 9.7 km/h 79% 0 mm
22:34 23.1 °C 19.3 °C 1015.8 hPa WSW 1.6 km/h 8 km/h 79% 0 mm
22:39 23.1 °C 19.2 °C 1015.8 hPa SW 8 km/h 9.7 km/h 79% 0 mm
22:44 22.9 °C 19.3 °C 1015.8 hPa SW 6.4 km/h 9.7 km/h 80% 0 mm
22:49 22.8 °C 19.3 °C 1015.8 hPa SW 3.2 km/h 6.4 km/h 81% 0 mm
22:54 22.6 °C 19.2 °C 1016.1 hPa SW 6.4 km/h 6.4 km/h 81% 0 mm
22:59 22.5 °C 19.3 °C 1016.1 hPa WSW 4.8 km/h 8 km/h 82% 0 mm
23:04 22.4 °C 19.2 °C 1016.1 hPa SW 4.8 km/h 11.3 km/h 82% 0 mm
23:09 22.3 °C 19.1 °C 1016.1 hPa WSW 6.4 km/h 8 km/h 82% 0 mm
23:14 22.2 °C 19.2 °C 1016.1 hPa SW 8 km/h 9.7 km/h 83% 0 mm
23:19 22.1 °C 18.9 °C 1016.1 hPa WSW 6.4 km/h 9.7 km/h 82% 0 mm
23:24 22.1 °C 18.8 °C 1016.1 hPa WSW 6.4 km/h 6.4 km/h 82% 0 mm
23:29 22.1 °C 18.8 °C 1016.1 hPa WSW 6.4 km/h 11.3 km/h 82% 0 mm
23:34 22 °C 18.8 °C 1015.8 hPa WSW 6.4 km/h 8 km/h 82% 0 mm
23:39 21.9 °C 18.7 °C 1015.8 hPa SW 3.2 km/h 6.4 km/h 82% 0 mm
23:44 21.8 °C 18.6 °C 1015.8 hPa WSW 3.2 km/h 9.7 km/h 82% 0 mm
23:49 21.7 °C 18.5 °C 1015.8 hPa West 3.2 km/h 11.3 km/h 82% 0 mm
23:54 21.6 °C 18.4 °C 1015.8 hPa WSW 4.8 km/h 8 km/h 82% 0 mm
23:59 21.5 °C 18.3 °C 1015.8 hPa SSW 3.2 km/h 4.8 km/h 82% 0 mm
Compliments of Weather Underground